Terminal Aerodrome Forecast
Issued by NWS

Home | Current Version | Previous Version | Graphics & Text | Print | Product List | Glossary On
Versions: 1 2 3 4 5 6 7 8 9 10 11 12 13 14 15 16 17
000
FTUS43 KMPX 150800 AAA
TAFAXN
TAF AMD
KAXN 150845Z 1509/1606 29007KT 5SM BR OVC003
      TEMPO 1509/1511 2SM BR OVC004
     FM151100 34012KT 5SM BR VCSH OVC004
     FM151600 36017G27KT 2SM -SN BR OVC005
     FM152200 35022G32KT 6SM BR OVC012=

USA.gov is the U.S. government's official web portal to all federal, state and local government web resources and services.